createdAt,value
2023-04-19T00:00:39.510Z,6.63
2023-04-19T00:03:09.474Z,6.10
2023-04-19T00:05:39.146Z,7.60
2023-04-19T00:08:10.501Z,6.80
2023-04-19T00:10:40.238Z,7.53
2023-04-19T00:13:10.103Z,7.00
2023-04-19T00:15:42.612Z,6.90
2023-04-19T00:18:12.904Z,7.33
2023-04-19T00:20:42.520Z,7.40
2023-04-19T00:23:12.478Z,6.63
2023-04-19T00:25:41.726Z,7.43
2023-04-19T00:28:11.949Z,7.40
2023-04-19T00:30:44.569Z,7.93
2023-04-19T00:33:14.718Z,7.30
2023-04-19T00:35:44.523Z,6.73
2023-04-19T00:38:16.367Z,8.13
2023-04-19T00:40:47.872Z,6.90
2023-04-19T00:43:20.551Z,7.10
2023-04-19T00:45:52.147Z,7.70
2023-04-19T00:48:22.998Z,8.10
2023-04-19T00:50:53.064Z,8.00
2023-04-19T00:53:24.134Z,8.27
2023-04-19T00:55:54.252Z,7.10
2023-04-19T00:58:23.568Z,7.93
2023-04-19T01:00:56.489Z,6.90
2023-04-19T01:03:27.789Z,6.60
2023-04-19T01:05:58.111Z,6.70
2023-04-19T01:08:27.671Z,6.97
2023-04-19T01:10:57.087Z,6.73
2023-04-19T01:13:28.137Z,7.57
2023-04-19T01:16:00.694Z,6.50
2023-04-19T01:18:37.564Z,6.60
2023-04-19T01:21:07.959Z,6.40
2023-04-19T01:23:40.722Z,6.20
2023-04-19T01:26:11.230Z,5.77
2023-04-19T01:28:40.725Z,5.53
2023-04-19T01:31:13.845Z,5.80
2023-04-19T01:33:43.965Z,5.40
2023-04-19T01:36:13.455Z,5.03
2023-04-19T01:38:48.265Z,5.10
2023-04-19T01:41:18.195Z,4.93
2023-04-19T01:43:50.454Z,4.10
2023-04-19T01:46:20.149Z,4.60
2023-04-19T01:48:49.749Z,5.10
2023-04-19T01:51:19.993Z,5.07
2023-04-19T01:53:53.860Z,4.43
2023-04-19T01:56:26.561Z,4.23
2023-04-19T01:58:56.358Z,4.50
2023-04-19T02:01:25.591Z,4.83
2023-04-19T02:03:56.163Z,3.70
2023-04-19T02:06:27.055Z,4.00
2023-04-19T02:08:59.347Z,3.73
2023-04-19T02:11:28.699Z,3.83
2023-04-19T02:13:57.814Z,4.27
2023-04-19T02:32:24.968Z,4.07
2023-04-19T02:34:55.276Z,4.33
2023-04-19T02:37:25.121Z,4.60
2023-04-19T02:39:56.245Z,4.50
2023-04-19T02:42:27.499Z,4.20
2023-04-19T02:44:58.637Z,4.43
2023-04-19T02:47:27.663Z,4.50
2023-04-19T02:49:58.278Z,4.90
2023-04-19T02:52:28.550Z,4.70
2023-04-19T02:54:58.061Z,4.37
2023-04-19T02:57:28.995Z,5.23
2023-04-19T02:59:59.826Z,4.37
2023-04-19T03:02:29.431Z,5.10
2023-04-19T03:04:59.047Z,4.03
2023-04-19T03:07:28.854Z,4.70
2023-04-19T03:09:58.868Z,4.00
2023-04-19T03:12:29.931Z,4.70
2023-04-19T03:14:59.312Z,4.50
2023-04-19T03:17:28.809Z,4.43
2023-04-19T03:19:59.851Z,4.23
2023-04-19T03:22:28.895Z,4.33
2023-04-19T03:24:58.594Z,5.33
2023-04-19T03:27:30.366Z,4.80
2023-04-19T03:30:04.435Z,4.10
2023-04-19T03:32:35.006Z,4.53
2023-04-19T03:35:04.775Z,4.20
2023-04-19T03:37:36.081Z,3.97
2023-04-19T03:40:06.763Z,4.07
2023-04-19T03:42:38.321Z,4.20
2023-04-19T03:45:19.877Z,3.93
2023-04-19T03:47:50.953Z,4.00
2023-04-19T03:50:22.061Z,3.77
2023-04-19T03:52:55.181Z,4.30
2023-04-19T03:55:24.879Z,3.10
2023-04-19T03:57:55.840Z,2.83
2023-04-19T04:00:38.705Z,3.40
2023-04-19T04:03:09.508Z,3.40
2023-04-19T04:05:38.730Z,2.77
2023-04-19T04:08:08.708Z,3.37
2023-04-19T04:10:37.906Z,2.70
2023-04-19T04:13:09.148Z,3.00
2023-04-19T04:15:47.203Z,2.40
2023-04-19T04:18:18.653Z,3.33
2023-04-19T04:20:48.402Z,2.43
2023-04-19T04:23:17.813Z,2.53
2023-04-19T04:25:59.763Z,3.20
2023-04-19T04:28:36.878Z,2.80
2023-04-19T04:31:06.258Z,2.93
2023-04-19T04:33:36.335Z,2.90
2023-04-19T04:36:09.711Z,3.07
2023-04-19T04:38:41.040Z,3.03
2023-04-19T04:41:10.777Z,3.27
2023-04-19T04:43:41.570Z,4.07
2023-04-19T04:46:12.233Z,3.43
2023-04-19T04:48:43.723Z,3.33
2023-04-19T04:51:13.383Z,3.27
2023-04-19T04:53:44.009Z,4.20
2023-04-19T04:56:13.575Z,3.33
2023-04-19T04:58:44.855Z,4.00
2023-04-19T05:01:19.942Z,3.47
2023-04-19T05:03:49.930Z,3.67
2023-04-19T05:06:22.120Z,5.73
2023-04-19T05:08:51.380Z,3.33
2023-04-19T05:11:29.070Z,3.50
2023-04-19T05:13:59.685Z,3.23
2023-04-19T05:16:29.766Z,3.80
2023-04-19T05:18:59.836Z,3.80
2023-04-19T05:21:31.278Z,3.57
2023-04-19T05:24:01.140Z,3.47
2023-04-19T05:26:30.464Z,3.77
2023-04-19T05:29:01.331Z,3.67
2023-04-19T05:31:41.076Z,3.03
2023-04-19T05:34:39.973Z,3.53
2023-04-19T05:37:13.660Z,4.17
2023-04-19T05:39:44.782Z,4.60
2023-04-19T05:42:14.515Z,4.17
2023-04-19T05:44:45.372Z,4.10
2023-04-19T05:47:15.692Z,3.50
2023-04-19T05:50:21.388Z,3.37
2023-04-19T05:53:07.766Z,4.20
2023-04-19T05:55:37.185Z,5.17
2023-04-19T05:58:06.389Z,11.57
2023-04-19T06:00:37.694Z,10.43
2023-04-19T06:03:12.682Z,7.00
2023-04-19T06:05:42.809Z,6.73
2023-04-19T06:08:12.757Z,7.10
2023-04-19T06:10:53.750Z,6.73
2023-04-19T06:13:25.193Z,7.43
2023-04-19T06:15:56.306Z,7.20
2023-04-19T06:18:25.923Z,7.83
2023-04-19T06:20:55.390Z,5.43
2023-04-19T06:23:25.697Z,6.17
2023-04-19T06:25:55.246Z,6.87
2023-04-19T06:28:24.408Z,8.23
2023-04-19T06:30:53.600Z,8.47
2023-04-19T06:33:24.589Z,9.20
2023-04-19T06:35:54.086Z,8.93
2023-04-19T06:38:23.310Z,8.00
2023-04-19T06:40:53.186Z,8.30
2023-04-19T06:43:22.679Z,8.00
2023-04-19T06:45:52.127Z,8.60
2023-04-19T06:48:21.967Z,8.80
2023-04-19T06:50:52.443Z,7.83
2023-04-19T06:53:21.893Z,8.80
2023-04-19T06:55:51.727Z,7.70
2023-04-19T06:58:21.213Z,8.23
2023-04-19T07:00:51.500Z,9.47
2023-04-19T07:03:20.624Z,8.13
2023-04-19T07:05:49.948Z,8.60
2023-04-19T07:08:21.019Z,8.43
2023-04-19T07:10:50.482Z,9.27
2023-04-19T07:13:19.624Z,9.70
2023-04-19T07:15:49.173Z,10.27
2023-04-19T07:18:18.731Z,8.80
2023-04-19T07:20:49.779Z,8.30
2023-04-19T07:23:20.732Z,7.90
2023-04-19T07:25:50.043Z,10.07
2023-04-19T07:28:19.219Z,7.70
2023-04-19T07:30:48.719Z,8.20
2023-04-19T07:33:18.506Z,7.03
2023-04-19T07:35:48.024Z,10.40
2023-04-19T07:38:17.548Z,10.07
2023-04-19T07:40:48.746Z,9.63
2023-04-19T07:43:18.193Z,9.10
2023-04-19T07:45:47.290Z,10.03
2023-04-19T07:48:16.978Z,8.80
2023-04-19T07:50:46.313Z,8.50
2023-04-19T07:53:16.922Z,9.03
2023-04-19T07:55:46.617Z,9.60
2023-04-19T07:58:17.706Z,9.30
2023-04-19T08:00:46.871Z,10.03
2023-04-19T08:03:16.549Z,11.33
2023-04-19T08:05:46.252Z,9.27
2023-04-19T08:08:15.366Z,7.63
2023-04-19T08:10:44.979Z,8.33
2023-04-19T08:13:14.483Z,9.17
2023-04-19T08:18:18.044Z,4.70
2023-04-19T08:20:48.731Z,5.23
2023-04-19T08:23:25.704Z,6.43
2023-04-19T08:25:57.027Z,5.00
2023-04-19T08:28:26.251Z,5.10
2023-04-19T08:30:57.400Z,4.07
2023-04-19T08:33:26.756Z,4.33
2023-04-19T08:35:55.943Z,8.50
2023-04-19T08:38:25.296Z,4.03
2023-04-19T08:40:56.542Z,4.83
2023-04-19T08:43:28.961Z,3.60
2023-04-19T08:46:00.311Z,3.90
2023-04-19T08:48:30.466Z,4.50
2023-04-19T08:51:05.516Z,3.87
2023-04-19T08:53:36.830Z,3.70
2023-04-19T08:56:12.887Z,4.70
2023-04-19T09:04:03.221Z,3.10
2023-04-19T09:06:40.392Z,3.70
2023-04-19T09:09:33.370Z,3.20
2023-04-19T09:12:06.775Z,3.87
2023-04-19T09:14:36.089Z,4.87
2023-04-19T09:17:23.406Z,3.87
2023-04-19T09:19:54.566Z,5.80
2023-04-19T09:22:24.160Z,5.03
2023-04-19T09:25:30.086Z,4.17
2023-04-19T09:27:43.579Z,4.97
2023-04-19T09:30:21.042Z,4.43
2023-04-19T09:32:57.231Z,4.20
2023-04-19T09:35:41.491Z,4.03
2023-04-19T09:38:10.994Z,3.67
2023-04-19T09:40:40.698Z,3.73
2023-04-19T09:43:32.966Z,4.93
2023-04-19T09:45:59.600Z,3.30
2023-04-19T09:48:29.642Z,3.00
2023-04-19T09:51:05.034Z,3.10
2023-04-19T09:53:35.869Z,2.70
2023-04-19T09:56:06.436Z,2.47
2023-04-19T09:58:48.786Z,3.83
2023-04-19T10:01:21.201Z,3.30
2023-04-19T10:03:52.380Z,3.70
2023-04-19T10:06:36.016Z,5.83
2023-04-19T10:09:15.848Z,3.03
2023-04-19T10:11:52.181Z,2.37
2023-04-19T10:14:24.916Z,2.60
2023-04-19T10:16:54.388Z,2.87
2023-04-19T10:19:24.895Z,2.50
2023-04-19T10:21:56.971Z,3.20
2023-04-19T10:24:26.474Z,2.60
2023-04-19T10:27:11.578Z,2.40
2023-04-19T10:30:00.604Z,3.40
2023-04-19T10:32:30.977Z,2.63
2023-04-19T10:35:06.213Z,2.17
2023-04-19T10:37:37.112Z,2.07
2023-04-19T10:40:07.578Z,2.63
2023-04-19T10:42:55.557Z,2.10
2023-04-19T10:45:34.360Z,1.97
2023-04-19T10:48:05.884Z,2.70
2023-04-19T10:50:50.043Z,2.80
2023-04-19T10:53:34.227Z,2.40
2023-04-19T10:56:05.064Z,2.33
2023-04-19T10:58:34.328Z,2.40
2023-04-19T11:01:22.632Z,2.33
2023-04-19T11:03:55.309Z,2.50
2023-04-19T11:06:27.448Z,2.67
2023-04-19T11:08:56.996Z,4.30
2023-04-19T11:11:28.509Z,3.00
2023-04-19T11:13:58.953Z,3.70
2023-04-19T11:16:44.463Z,3.10
2023-04-19T11:19:18.177Z,2.87
2023-04-19T11:21:48.355Z,2.80
2023-04-19T11:24:19.228Z,2.80
2023-04-19T11:26:50.163Z,3.13
2023-04-19T11:29:22.011Z,3.50
2023-04-19T11:31:51.549Z,3.63
2023-04-19T11:34:24.658Z,2.50
2023-04-19T11:36:54.014Z,3.73
2023-04-19T11:39:23.114Z,4.30
2023-04-19T11:41:53.794Z,3.40
2023-04-19T11:44:23.036Z,3.77
2023-04-19T11:47:03.029Z,3.67
2023-04-19T11:49:32.934Z,3.50
2023-04-19T11:52:05.683Z,4.30
2023-04-19T11:54:35.807Z,4.57
2023-04-19T11:57:07.099Z,5.70
2023-04-19T11:59:36.870Z,4.67
2023-04-19T12:02:10.649Z,3.93
2023-04-19T12:04:40.510Z,4.20
2023-04-19T12:07:09.803Z,4.30
2023-04-19T12:09:39.510Z,5.47
2023-04-19T12:12:10.277Z,3.90
2023-04-19T12:14:39.625Z,4.70
2023-04-19T12:17:09.968Z,5.00
2023-04-19T12:19:40.632Z,4.87
2023-04-19T12:22:10.616Z,3.00
2023-04-19T12:24:40.547Z,2.63
2023-04-19T12:27:11.582Z,3.13
2023-04-19T12:29:41.370Z,3.30
2023-04-19T12:32:12.350Z,3.30
2023-04-19T12:34:41.644Z,3.60
2023-04-19T12:37:11.265Z,3.10
2023-04-19T12:39:40.916Z,3.00
2023-04-19T12:42:11.791Z,3.10
2023-04-19T12:44:41.417Z,3.03
2023-04-19T12:47:10.877Z,2.80
2023-04-19T12:49:40.037Z,3.73
2023-04-19T12:52:09.462Z,3.23
2023-04-19T12:54:39.124Z,2.60
2023-04-19T12:57:08.328Z,3.10
2023-04-19T12:59:39.405Z,3.40
2023-04-19T13:02:09.283Z,3.10
2023-04-19T13:04:38.677Z,3.27
2023-04-19T13:07:08.226Z,2.80
2023-04-19T13:09:37.253Z,2.77
2023-04-19T13:12:07.046Z,2.80
2023-04-19T13:14:36.472Z,2.73
2023-04-19T13:17:07.230Z,2.90
2023-04-19T13:19:36.600Z,2.30
2023-04-19T13:22:06.167Z,2.40
2023-04-19T13:24:35.931Z,2.40
2023-04-19T13:27:07.347Z,2.90
2023-04-19T13:29:38.686Z,2.40
2023-04-19T13:32:12.635Z,2.37
2023-04-19T13:34:42.598Z,2.90
2023-04-19T13:37:12.108Z,2.60
2023-04-19T13:39:41.417Z,2.87
2023-04-19T13:42:10.561Z,2.73
2023-04-19T13:44:39.943Z,2.87
2023-04-19T13:47:10.884Z,3.73
2023-04-19T13:49:40.323Z,3.27
2023-04-19T13:52:09.532Z,2.20
2023-04-19T13:54:39.050Z,2.37
2023-04-19T13:57:08.533Z,2.97
2023-04-19T13:59:37.851Z,2.17
2023-04-19T14:02:07.125Z,1.90
2023-04-19T14:04:38.032Z,2.27
2023-04-19T14:07:07.450Z,2.80
2023-04-19T14:09:37.157Z,2.67
2023-04-19T14:12:06.644Z,2.40
2023-04-19T14:14:36.104Z,2.63
2023-04-19T14:17:05.641Z,2.07
2023-04-19T14:19:34.875Z,2.20
2023-04-19T14:22:05.739Z,4.13
2023-04-19T14:24:34.899Z,2.60
2023-04-19T14:27:10.866Z,2.60
2023-04-19T14:29:40.924Z,2.50
2023-04-19T14:32:24.506Z,3.40
2023-04-19T14:34:56.320Z,2.40
2023-04-19T14:37:27.241Z,2.87
2023-04-19T14:39:56.409Z,2.70
2023-04-19T14:42:25.439Z,6.80
2023-04-19T14:44:54.778Z,3.10
2023-04-19T14:47:24.172Z,2.40
2023-04-19T14:49:53.389Z,2.10
2023-04-19T14:52:22.774Z,2.40
2023-04-19T14:54:53.525Z,2.10
2023-04-19T14:57:22.880Z,2.67
2023-04-19T14:59:52.269Z,2.60
2023-04-19T15:02:21.528Z,2.80
2023-04-19T15:04:51.127Z,2.30
2023-04-19T15:07:20.589Z,4.83
2023-04-19T15:09:49.936Z,2.20
2023-04-19T15:12:20.634Z,3.10
2023-04-19T15:14:49.766Z,2.40
2023-04-19T15:17:19.237Z,2.70
2023-04-19T15:19:48.519Z,4.13
2023-04-19T15:22:17.978Z,3.13
2023-04-19T15:24:47.484Z,2.20
2023-04-19T15:27:16.722Z,3.03
2023-04-19T15:29:48.278Z,2.40
2023-04-19T15:32:17.564Z,2.60
2023-04-19T15:34:46.824Z,3.60
2023-04-19T15:37:16.299Z,3.33
2023-04-19T15:39:45.482Z,2.40
2023-04-19T15:42:14.822Z,2.70
2023-04-19T15:44:44.347Z,2.77
2023-04-19T15:47:15.881Z,2.23
2023-04-19T15:49:47.429Z,2.40
2023-04-19T15:52:17.194Z,2.57
2023-04-19T15:54:46.492Z,2.50
2023-04-19T15:57:16.153Z,3.17
2023-04-19T15:59:45.857Z,2.40
2023-04-19T16:02:16.542Z,2.90
2023-04-19T16:04:48.583Z,2.77
2023-04-19T16:07:18.113Z,3.60
2023-04-19T16:09:47.251Z,2.60
2023-04-19T16:12:16.353Z,3.90
2023-04-19T16:14:45.554Z,2.40
2023-04-19T16:17:16.676Z,2.53
2023-04-19T16:19:45.838Z,2.00
2023-04-19T16:22:15.294Z,3.00
2023-04-19T16:24:46.551Z,2.27
2023-04-19T16:27:15.791Z,2.50
2023-04-19T16:29:44.881Z,2.33
2023-04-19T16:32:14.466Z,2.87
2023-04-19T16:34:45.285Z,7.50
2023-04-19T16:37:16.330Z,2.90
2023-04-19T16:39:45.812Z,3.47
2023-04-19T16:42:14.861Z,2.47
2023-04-19T16:44:43.983Z,2.70
2023-04-19T16:47:13.305Z,3.07
2023-04-19T16:49:42.602Z,2.70
2023-04-19T16:52:13.710Z,2.87
2023-04-19T16:54:43.697Z,2.47
2023-04-19T16:57:12.986Z,3.37
2023-04-19T16:59:42.480Z,2.30
2023-04-19T17:02:12.034Z,3.83
2023-04-19T17:04:41.721Z,2.60
2023-04-19T17:07:11.949Z,3.80
2023-04-19T17:09:42.685Z,12.97
2023-04-19T17:12:12.298Z,3.27
2023-04-19T17:14:41.913Z,4.97
2023-04-19T17:17:11.150Z,3.77
2023-04-19T17:19:40.698Z,3.30
2023-04-19T17:22:09.840Z,3.40
2023-04-19T17:24:39.344Z,3.40
2023-04-19T17:27:10.758Z,3.67
2023-04-19T17:29:40.196Z,3.60
2023-04-19T17:32:09.400Z,2.70
2023-04-19T17:34:39.046Z,3.70
2023-04-19T17:37:08.318Z,3.63
2023-04-19T17:39:37.762Z,3.90
2023-04-19T17:42:06.886Z,3.30
2023-04-19T17:44:37.645Z,4.00
2023-04-19T17:47:07.380Z,3.40
2023-04-19T17:49:36.704Z,4.00
2023-04-19T17:52:05.861Z,2.90
2023-04-19T17:54:35.089Z,3.70
2023-04-19T17:57:04.735Z,3.50
2023-04-19T17:59:33.891Z,3.80
2023-04-19T18:02:05.145Z,3.20
2023-04-19T18:04:35.041Z,3.80
2023-04-19T18:07:05.129Z,4.87
2023-04-19T18:09:34.259Z,2.80
2023-04-19T18:12:04.224Z,4.07
2023-04-19T18:14:34.153Z,3.33
2023-04-19T18:17:07.052Z,4.23
2023-04-19T18:19:37.621Z,4.60
2023-04-19T18:22:07.519Z,3.70
2023-04-19T18:24:37.035Z,4.50
2023-04-19T18:27:06.224Z,4.10
2023-04-19T18:29:35.617Z,4.77
2023-04-19T18:32:06.560Z,4.57
2023-04-19T18:34:35.872Z,3.37
2023-04-19T18:37:05.561Z,4.27
2023-04-19T18:39:34.980Z,3.47
2023-04-19T18:42:04.571Z,4.30
2023-04-19T18:44:51.945Z,5.13
2023-04-19T18:47:24.183Z,7.03
2023-04-19T18:50:04.365Z,5.90
2023-04-19T18:52:35.676Z,4.57
2023-04-19T18:55:05.991Z,4.00
2023-04-19T18:57:35.499Z,4.83
2023-04-19T19:00:11.285Z,4.87
2023-04-19T19:02:43.840Z,5.20
2023-04-19T19:05:15.994Z,5.00
2023-04-19T19:07:46.101Z,5.50
2023-04-19T19:10:19.256Z,4.93
2023-04-19T19:12:51.329Z,4.50
2023-04-19T19:15:20.680Z,4.53
2023-04-19T19:17:51.696Z,4.30
2023-04-19T19:20:21.542Z,4.67
2023-04-19T19:22:51.661Z,4.50
2023-04-19T19:25:20.942Z,3.50
2023-04-19T19:30:29.817Z,3.60
2023-04-19T19:33:01.254Z,5.10
2023-04-19T19:35:31.045Z,3.50
2023-04-19T19:38:00.260Z,3.30
2023-04-19T19:40:32.378Z,5.27
2023-04-19T19:43:02.476Z,3.40
2023-04-19T19:45:32.097Z,3.23
2023-04-19T19:48:03.342Z,4.00
2023-04-19T19:53:05.867Z,3.63
2023-04-19T19:55:36.010Z,10.40
2023-04-19T20:00:46.242Z,3.70
2023-04-19T20:03:32.841Z,4.70
2023-04-19T20:08:42.374Z,6.60
2023-04-19T20:11:13.703Z,4.20
2023-04-19T20:13:42.921Z,5.90
2023-04-19T20:16:12.943Z,3.60
2023-04-19T20:18:44.188Z,3.73
2023-04-19T20:21:15.270Z,3.63
2023-04-19T20:23:45.211Z,6.90
2023-04-19T20:26:14.372Z,5.50
2023-04-19T20:28:43.618Z,4.93
2023-04-19T20:31:12.756Z,5.80
2023-04-19T20:33:43.363Z,10.70
2023-04-19T20:36:14.076Z,4.20
2023-04-19T20:38:45.018Z,8.40
2023-04-19T20:41:14.480Z,8.80
2023-04-19T20:43:43.613Z,5.10
2023-04-19T20:46:13.095Z,5.30
2023-04-19T20:48:43.757Z,5.77
2023-04-19T20:51:15.358Z,5.07
2023-04-19T20:53:44.776Z,5.87
2023-04-19T20:56:13.962Z,3.90
2023-04-19T20:58:43.461Z,4.17
2023-04-19T21:01:17.500Z,4.93
2023-04-19T21:03:48.720Z,3.53
2023-04-19T21:06:20.822Z,4.13
2023-04-19T21:08:52.737Z,5.23
2023-04-19T21:11:21.833Z,5.57
2023-04-19T21:13:51.032Z,3.90
2023-04-19T21:16:20.478Z,3.73
2023-04-19T21:18:51.886Z,4.67
2023-04-19T21:21:21.191Z,4.00
2023-04-19T21:23:50.301Z,4.17
2023-04-19T21:26:19.740Z,3.40
2023-04-19T21:28:48.790Z,3.40
2023-04-19T21:31:18.172Z,3.27
2023-04-19T21:33:47.462Z,3.73
2023-04-19T21:36:18.024Z,3.00
2023-04-19T21:38:47.769Z,3.30
2023-04-19T21:41:17.290Z,4.37
2023-04-19T21:43:46.794Z,4.60
2023-04-19T21:46:15.951Z,3.80
2023-04-19T21:48:45.235Z,3.60
2023-04-19T21:51:15.300Z,3.67
2023-04-19T21:53:46.334Z,4.10
2023-04-19T21:56:15.652Z,3.97
2023-04-19T21:58:44.990Z,4.80
2023-04-19T22:01:14.245Z,5.47
2023-04-19T22:03:43.536Z,3.43
2023-04-19T22:06:14.086Z,3.23
2023-04-19T22:08:44.157Z,4.03
2023-04-19T22:11:15.751Z,3.63
2023-04-19T22:13:46.462Z,4.30
2023-04-19T22:16:16.243Z,3.60
2023-04-19T22:18:45.366Z,3.87
2023-04-19T22:21:14.760Z,3.67
2023-04-19T22:23:43.829Z,4.23
2023-04-19T22:26:14.757Z,4.27
2023-04-19T22:28:44.186Z,3.70
2023-04-19T22:31:13.359Z,4.23
2023-04-19T22:33:42.694Z,3.77
2023-04-19T22:36:12.046Z,3.63
2023-04-19T22:38:41.306Z,3.17
2023-04-19T22:41:10.415Z,3.03
2023-04-19T22:43:41.344Z,3.20
2023-04-19T22:46:10.721Z,3.63
2023-04-19T22:48:39.840Z,3.47
2023-04-19T22:51:09.499Z,3.00
2023-04-19T22:53:39.398Z,3.03
2023-04-19T22:56:08.704Z,3.50
2023-04-19T22:58:38.045Z,2.80
2023-04-19T23:01:08.612Z,3.27
2023-04-19T23:03:37.725Z,2.90
2023-04-19T23:06:08.221Z,2.77
2023-04-19T23:08:37.473Z,3.27
2023-04-19T23:11:06.797Z,3.03
2023-04-19T23:13:36.281Z,3.13
2023-04-19T23:16:05.569Z,3.40
2023-04-19T23:18:36.592Z,2.93
2023-04-19T23:21:05.972Z,2.93
2023-04-19T23:23:35.042Z,3.00
2023-04-19T23:26:04.414Z,2.60
2023-04-19T23:28:33.814Z,3.17
2023-04-19T23:31:03.308Z,3.20
2023-04-19T23:33:32.693Z,2.70
2023-04-19T23:36:04.165Z,2.40
2023-04-19T23:38:34.689Z,2.47
2023-04-19T23:41:04.133Z,3.00
2023-04-19T23:43:33.892Z,3.10
2023-04-19T23:46:03.255Z,2.77
2023-04-19T23:48:32.388Z,3.50
2023-04-19T23:51:01.687Z,2.90
2023-04-19T23:53:32.726Z,2.90
2023-04-19T23:56:02.437Z,2.60
2023-04-19T23:58:31.550Z,2.63
